sensor_id;sensor_type;location;lat;lon;timestamp;pressure;altitude;pressure_sealevel;temperature
34023;BMP280;20673;48.980;8.138;2023-06-10T00:01:04;99601.54;;;18.61
34023;BMP280;20673;48.980;8.138;2023-06-10T00:03:30;99602.53;;;18.65
34023;BMP280;20673;48.980;8.138;2023-06-10T00:05:56;99602.31;;;18.67
34023;BMP280;20673;48.980;8.138;2023-06-10T00:08:22;99599.92;;;18.69
34023;BMP280;20673;48.980;8.138;2023-06-10T00:10:49;99603.81;;;18.69
34023;BMP280;20673;48.980;8.138;2023-06-10T00:13:15;99604.36;;;18.72
34023;BMP280;20673;48.980;8.138;2023-06-10T00:15:42;99599.48;;;18.75
34023;BMP280;20673;48.980;8.138;2023-06-10T00:18:08;99606.01;;;18.77
34023;BMP280;20673;48.980;8.138;2023-06-10T00:20:35;99609.86;;;18.78
34023;BMP280;20673;48.980;8.138;2023-06-10T00:23:03;99606.67;;;18.78
34023;BMP280;20673;48.980;8.138;2023-06-10T00:25:31;99604.93;;;18.75
34023;BMP280;20673;48.980;8.138;2023-06-10T00:27:58;99598.34;;;18.73
34023;BMP280;20673;48.980;8.138;2023-06-10T00:30:25;99601.03;;;18.73
34023;BMP280;20673;48.980;8.138;2023-06-10T00:32:51;99602.84;;;18.72
34023;BMP280;20673;48.980;8.138;2023-06-10T00:35:17;99607.83;;;18.69
34023;BMP280;20673;48.980;8.138;2023-06-10T00:37:43;99605.97;;;18.61
34023;BMP280;20673;48.980;8.138;2023-06-10T00:40:10;99605.16;;;18.55
34023;BMP280;20673;48.980;8.138;2023-06-10T00:42:37;99609.41;;;18.50
34023;BMP280;20673;48.980;8.138;2023-06-10T00:45:05;99609.26;;;18.48
34023;BMP280;20673;48.980;8.138;2023-06-10T00:47:31;99609.34;;;18.41
34023;BMP280;20673;48.980;8.138;2023-06-10T00:49:58;99604.20;;;18.36
34023;BMP280;20673;48.980;8.138;2023-06-10T00:52:28;99600.83;;;18.33
34023;BMP280;20673;48.980;8.138;2023-06-10T00:54:55;99602.97;;;18.27
34023;BMP280;20673;48.980;8.138;2023-06-10T00:57:22;99605.36;;;18.21
34023;BMP280;20673;48.980;8.138;2023-06-10T00:59:49;99599.11;;;18.12
34023;BMP280;20673;48.980;8.138;2023-06-10T01:02:15;99599.17;;;18.13
34023;BMP280;20673;48.980;8.138;2023-06-10T01:04:42;99600.92;;;18.05
34023;BMP280;20673;48.980;8.138;2023-06-10T01:07:38;99600.86;;;17.96
34023;BMP280;20673;48.980;8.138;2023-06-10T01:10:28;99599.90;;;17.82
34023;BMP280;20673;48.980;8.138;2023-06-10T01:13:08;99601.84;;;17.70
34023;BMP280;20673;48.980;8.138;2023-06-10T01:15:38;99607.58;;;17.55
34023;BMP280;20673;48.980;8.138;2023-06-10T01:18:08;99602.87;;;17.44
34023;BMP280;20673;48.980;8.138;2023-06-10T01:20:37;99605.97;;;17.39
34023;BMP280;20673;48.980;8.138;2023-06-10T01:23:07;99605.58;;;17.36
34023;BMP280;20673;48.980;8.138;2023-06-10T01:25:41;99609.44;;;17.30
34023;BMP280;20673;48.980;8.138;2023-06-10T01:34:15;99612.54;;;17.23
34023;BMP280;20673;48.980;8.138;2023-06-10T01:36:48;99612.37;;;17.17
34023;BMP280;20673;48.980;8.138;2023-06-10T01:39:16;99611.89;;;17.12
34023;BMP280;20673;48.980;8.138;2023-06-10T01:41:43;99613.04;;;17.12
34023;BMP280;20673;48.980;8.138;2023-06-10T01:44:10;99612.83;;;17.12
34023;BMP280;20673;48.980;8.138;2023-06-10T01:46:36;99619.16;;;17.08
34023;BMP280;20673;48.980;8.138;2023-06-10T01:49:02;99615.14;;;16.98
34023;BMP280;20673;48.980;8.138;2023-06-10T01:51:28;99622.72;;;16.99
34023;BMP280;20673;48.980;8.138;2023-06-10T01:53:56;99618.90;;;16.98
34023;BMP280;20673;48.980;8.138;2023-06-10T01:56:22;99620.10;;;17.00
34023;BMP280;20673;48.980;8.138;2023-06-10T01:58:48;99616.31;;;17.00
34023;BMP280;20673;48.980;8.138;2023-06-10T02:01:15;99620.72;;;17.08
34023;BMP280;20673;48.980;8.138;2023-06-10T02:03:41;99627.37;;;17.14
34023;BMP280;20673;48.980;8.138;2023-06-10T02:06:07;99623.17;;;17.21
34023;BMP280;20673;48.980;8.138;2023-06-10T02:08:33;99626.76;;;17.27
34023;BMP280;20673;48.980;8.138;2023-06-10T02:11:00;99629.47;;;17.32
34023;BMP280;20673;48.980;8.138;2023-06-10T02:13:26;99634.42;;;17.34
34023;BMP280;20673;48.980;8.138;2023-06-10T02:15:52;99630.83;;;17.39
34023;BMP280;20673;48.980;8.138;2023-06-10T02:18:20;99638.41;;;17.38
34023;BMP280;20673;48.980;8.138;2023-06-10T02:20:46;99636.98;;;17.40
34023;BMP280;20673;48.980;8.138;2023-06-10T02:23:12;99637.78;;;17.42
34023;BMP280;20673;48.980;8.138;2023-06-10T02:25:39;99636.22;;;17.40
34023;BMP280;20673;48.980;8.138;2023-06-10T02:28:05;99637.01;;;17.42
34023;BMP280;20673;48.980;8.138;2023-06-10T02:30:31;99638.96;;;17.42
34023;BMP280;20673;48.980;8.138;2023-06-10T02:32:57;99642.22;;;17.43
34023;BMP280;20673;48.980;8.138;2023-06-10T02:35:24;99643.04;;;17.41
34023;BMP280;20673;48.980;8.138;2023-06-10T02:37:51;99643.90;;;17.42
34023;BMP280;20673;48.980;8.138;2023-06-10T02:40:17;99645.78;;;17.41
34023;BMP280;20673;48.980;8.138;2023-06-10T02:42:43;99653.43;;;17.43
34023;BMP280;20673;48.980;8.138;2023-06-10T02:45:09;99658.23;;;17.42
34023;BMP280;20673;48.980;8.138;2023-06-10T02:47:38;99661.86;;;17.41
34023;BMP280;20673;48.980;8.138;2023-06-10T02:50:06;99664.59;;;17.41
34023;BMP280;20673;48.980;8.138;2023-06-10T02:52:32;99667.96;;;17.41
34023;BMP280;20673;48.980;8.138;2023-06-10T02:54:58;99665.33;;;17.40
34023;BMP280;20673;48.980;8.138;2023-06-10T02:57:25;99666.84;;;17.40
34023;BMP280;20673;48.980;8.138;2023-06-10T02:59:51;99668.87;;;17.38
34023;BMP280;20673;48.980;8.138;2023-06-10T03:02:19;99669.00;;;17.33
34023;BMP280;20673;48.980;8.138;2023-06-10T03:04:45;99668.63;;;17.31
34023;BMP280;20673;48.980;8.138;2023-06-10T03:07:12;99674.97;;;17.27
34023;BMP280;20673;48.980;8.138;2023-06-10T03:09:38;99677.18;;;17.20
34023;BMP280;20673;48.980;8.138;2023-06-10T03:12:05;99677.01;;;17.16
34023;BMP280;20673;48.980;8.138;2023-06-10T03:14:31;99675.91;;;17.12
34023;BMP280;20673;48.980;8.138;2023-06-10T03:16:58;99674.65;;;17.05
34023;BMP280;20673;48.980;8.138;2023-06-10T03:19:25;99675.04;;;17.05
34023;BMP280;20673;48.980;8.138;2023-06-10T03:22:10;99677.45;;;17.04
34023;BMP280;20673;48.980;8.138;2023-06-10T03:24:37;99679.68;;;17.06
34023;BMP280;20673;48.980;8.138;2023-06-10T03:27:08;99676.22;;;17.05
34023;BMP280;20673;48.980;8.138;2023-06-10T03:29:35;99677.90;;;17.05
34023;BMP280;20673;48.980;8.138;2023-06-10T03:32:02;99677.67;;;17.04
34023;BMP280;20673;48.980;8.138;2023-06-10T03:34:28;99676.43;;;17.05
34023;BMP280;20673;48.980;8.138;2023-06-10T03:36:56;99681.59;;;17.05
34023;BMP280;20673;48.980;8.138;2023-06-10T03:39:22;99683.03;;;17.04
34023;BMP280;20673;48.980;8.138;2023-06-10T03:41:52;99682.56;;;17.03
34023;BMP280;20673;48.980;8.138;2023-06-10T03:44:18;99686.07;;;17.06
34023;BMP280;20673;48.980;8.138;2023-06-10T03:46:44;99679.53;;;17.09
34023;BMP280;20673;48.980;8.138;2023-06-10T03:49:11;99685.36;;;17.14
34023;BMP280;20673;48.980;8.138;2023-06-10T03:51:38;99688.94;;;17.21
34023;BMP280;20673;48.980;8.138;2023-06-10T03:54:04;99690.68;;;17.24
34023;BMP280;20673;48.980;8.138;2023-06-10T03:56:31;99691.36;;;17.31
34023;BMP280;20673;48.980;8.138;2023-06-10T03:58:57;99695.14;;;17.32
34023;BMP280;20673;48.980;8.138;2023-06-10T04:01:23;99695.58;;;17.38
34023;BMP280;20673;48.980;8.138;2023-06-10T04:03:50;99699.49;;;17.37
34023;BMP280;20673;48.980;8.138;2023-06-10T04:06:17;99699.54;;;17.40
34023;BMP280;20673;48.980;8.138;2023-06-10T04:08:43;99705.11;;;17.42
34023;BMP280;20673;48.980;8.138;2023-06-10T04:11:09;99703.20;;;17.42
34023;BMP280;20673;48.980;8.138;2023-06-10T04:13:35;99703.59;;;17.46
34023;BMP280;20673;48.980;8.138;2023-06-10T04:16:02;99705.81;;;17.46
34023;BMP280;20673;48.980;8.138;2023-06-10T04:18:29;99711.43;;;17.53
34023;BMP280;20673;48.980;8.138;2023-06-10T04:20:55;99708.11;;;17.54
34023;BMP280;20673;48.980;8.138;2023-06-10T04:23:21;99707.75;;;17.58
34023;BMP280;20673;48.980;8.138;2023-06-10T04:25:47;99707.10;;;17.64
34023;BMP280;20673;48.980;8.138;2023-06-10T04:28:13;99709.41;;;17.68
34023;BMP280;20673;48.980;8.138;2023-06-10T04:30:40;99709.73;;;17.74
34023;BMP280;20673;48.980;8.138;2023-06-10T04:33:07;99707.89;;;17.78
34023;BMP280;20673;48.980;8.138;2023-06-10T04:35:34;99719.83;;;17.87
34023;BMP280;20673;48.980;8.138;2023-06-10T04:38:00;99719.25;;;17.93
34023;BMP280;20673;48.980;8.138;2023-06-10T04:40:28;99721.21;;;18.00
34023;BMP280;20673;48.980;8.138;2023-06-10T04:42:55;99724.81;;;18.05
34023;BMP280;20673;48.980;8.138;2023-06-10T04:45:21;99728.54;;;18.11
34023;BMP280;20673;48.980;8.138;2023-06-10T04:47:47;99729.03;;;18.23
34023;BMP280;20673;48.980;8.138;2023-06-10T04:50:13;99733.90;;;18.32
34023;BMP280;20673;48.980;8.138;2023-06-10T04:52:39;99733.43;;;18.37
34023;BMP280;20673;48.980;8.138;2023-06-10T04:55:08;99731.78;;;18.43
34023;BMP280;20673;48.980;8.138;2023-06-10T04:57:34;99735.18;;;18.51
34023;BMP280;20673;48.980;8.138;2023-06-10T05:00:00;99730.51;;;18.58
34023;BMP280;20673;48.980;8.138;2023-06-10T05:02:26;99726.17;;;18.63
34023;BMP280;20673;48.980;8.138;2023-06-10T05:04:53;99725.18;;;18.69
34023;BMP280;20673;48.980;8.138;2023-06-10T05:07:20;99729.43;;;18.80
34023;BMP280;20673;48.980;8.138;2023-06-10T05:09:46;99736.79;;;18.84
34023;BMP280;20673;48.980;8.138;2023-06-10T05:12:12;99735.86;;;18.91
34023;BMP280;20673;48.980;8.138;2023-06-10T05:14:38;99733.65;;;18.98
34023;BMP280;20673;48.980;8.138;2023-06-10T05:17:05;99736.59;;;19.08
34023;BMP280;20673;48.980;8.138;2023-06-10T05:19:32;99736.36;;;19.16
34023;BMP280;20673;48.980;8.138;2023-06-10T05:21:58;99739.69;;;19.20
34023;BMP280;20673;48.980;8.138;2023-06-10T05:24:24;99743.68;;;19.28
34023;BMP280;20673;48.980;8.138;2023-06-10T05:26:50;99737.84;;;19.35
34023;BMP280;20673;48.980;8.138;2023-06-10T05:29:16;99743.42;;;19.42
34023;BMP280;20673;48.980;8.138;2023-06-10T05:31:42;99744.28;;;19.46
34023;BMP280;20673;48.980;8.138;2023-06-10T05:34:08;99744.20;;;19.54
34023;BMP280;20673;48.980;8.138;2023-06-10T05:36:34;99749.29;;;19.63
34023;BMP280;20673;48.980;8.138;2023-06-10T05:39:00;99745.81;;;19.69
34023;BMP280;20673;48.980;8.138;2023-06-10T05:41:27;99745.67;;;19.77
34023;BMP280;20673;48.980;8.138;2023-06-10T05:43:53;99749.58;;;19.87
34023;BMP280;20673;48.980;8.138;2023-06-10T05:46:20;99751.22;;;19.93
34023;BMP280;20673;48.980;8.138;2023-06-10T05:48:46;99752.84;;;19.99
34023;BMP280;20673;48.980;8.138;2023-06-10T05:51:12;99752.73;;;20.04
34023;BMP280;20673;48.980;8.138;2023-06-10T05:53:38;99750.06;;;20.08
34023;BMP280;20673;48.980;8.138;2023-06-10T05:56:05;99752.36;;;20.17
34023;BMP280;20673;48.980;8.138;2023-06-10T05:58:32;99752.59;;;20.19
34023;BMP280;20673;48.980;8.138;2023-06-10T06:00:58;99757.37;;;20.29
34023;BMP280;20673;48.980;8.138;2023-06-10T06:03:24;99751.98;;;20.38
34023;BMP280;20673;48.980;8.138;2023-06-10T06:05:51;99755.07;;;20.50
34023;BMP280;20673;48.980;8.138;2023-06-10T06:08:17;99755.90;;;20.59
34023;BMP280;20673;48.980;8.138;2023-06-10T06:10:47;99750.90;;;20.69
34023;BMP280;20673;48.980;8.138;2023-06-10T06:13:14;99756.22;;;20.74
34023;BMP280;20673;48.980;8.138;2023-06-10T06:15:41;99760.55;;;20.81
34023;BMP280;20673;48.980;8.138;2023-06-10T06:18:09;99757.83;;;21.01
34023;BMP280;20673;48.980;8.138;2023-06-10T06:20:35;99754.96;;;20.99
34023;BMP280;20673;48.980;8.138;2023-06-10T06:23:02;99756.50;;;21.10
34023;BMP280;20673;48.980;8.138;2023-06-10T06:25:31;99763.19;;;21.20
34023;BMP280;20673;48.980;8.138;2023-06-10T06:27:59;99760.47;;;21.37
34023;BMP280;20673;48.980;8.138;2023-06-10T06:30:26;99756.62;;;21.49
34023;BMP280;20673;48.980;8.138;2023-06-10T06:32:52;99755.15;;;21.62
34023;BMP280;20673;48.980;8.138;2023-06-10T06:35:18;99758.30;;;21.80
34023;BMP280;20673;48.980;8.138;2023-06-10T06:37:44;99761.69;;;21.88
34023;BMP280;20673;48.980;8.138;2023-06-10T06:40:12;99766.01;;;21.97
34023;BMP280;20673;48.980;8.138;2023-06-10T06:42:38;99762.40;;;22.07
34023;BMP280;20673;48.980;8.138;2023-06-10T06:45:06;99760.68;;;22.09
34023;BMP280;20673;48.980;8.138;2023-06-10T06:47:32;99763.76;;;22.19
34023;BMP280;20673;48.980;8.138;2023-06-10T06:49:58;99763.45;;;22.32
34023;BMP280;20673;48.980;8.138;2023-06-10T06:52:25;99760.48;;;22.43
34023;BMP280;20673;48.980;8.138;2023-06-10T06:54:51;99761.64;;;22.56
34023;BMP280;20673;48.980;8.138;2023-06-10T06:57:17;99762.20;;;22.71
34023;BMP280;20673;48.980;8.138;2023-06-10T06:59:46;99764.87;;;22.76
34023;BMP280;20673;48.980;8.138;2023-06-10T07:02:12;99761.03;;;22.82
34023;BMP280;20673;48.980;8.138;2023-06-10T07:04:38;99760.18;;;22.82
34023;BMP280;20673;48.980;8.138;2023-06-10T07:07:08;99761.78;;;22.92
34023;BMP280;20673;48.980;8.138;2023-06-10T07:09:38;99761.83;;;22.98
34023;BMP280;20673;48.980;8.138;2023-06-10T07:12:05;99763.92;;;23.19
34023;BMP280;20673;48.980;8.138;2023-06-10T07:14:31;99763.74;;;23.29
34023;BMP280;20673;48.980;8.138;2023-06-10T07:16:57;99763.01;;;23.55
34023;BMP280;20673;48.980;8.138;2023-06-10T07:19:23;99762.18;;;23.67
34023;BMP280;20673;48.980;8.138;2023-06-10T07:21:49;99766.93;;;23.72
34023;BMP280;20673;48.980;8.138;2023-06-10T07:24:15;99764.29;;;23.74
34023;BMP280;20673;48.980;8.138;2023-06-10T07:26:42;99766.04;;;23.81
34023;BMP280;20673;48.980;8.138;2023-06-10T07:29:08;99766.34;;;24.05
34023;BMP280;20673;48.980;8.138;2023-06-10T07:31:34;99763.17;;;24.24
34023;BMP280;20673;48.980;8.138;2023-06-10T07:34:00;99764.73;;;24.24
34023;BMP280;20673;48.980;8.138;2023-06-10T07:36:27;99767.79;;;24.32
34023;BMP280;20673;48.980;8.138;2023-06-10T07:38:54;99766.03;;;24.51
34023;BMP280;20673;48.980;8.138;2023-06-10T07:41:24;99767.70;;;24.55
34023;BMP280;20673;48.980;8.138;2023-06-10T07:43:53;99768.74;;;24.76
34023;BMP280;20673;48.980;8.138;2023-06-10T07:46:23;99767.67;;;24.83
34023;BMP280;20673;48.980;8.138;2023-06-10T07:48:51;99765.83;;;24.99
34023;BMP280;20673;48.980;8.138;2023-06-10T07:51:17;99774.12;;;24.98
34023;BMP280;20673;48.980;8.138;2023-06-10T07:53:43;99770.29;;;25.24
34023;BMP280;20673;48.980;8.138;2023-06-10T07:56:09;99771.59;;;25.15
34023;BMP280;20673;48.980;8.138;2023-06-10T07:58:35;99763.36;;;25.25
34023;BMP280;20673;48.980;8.138;2023-06-10T08:01:02;99763.93;;;25.46
34023;BMP280;20673;48.980;8.138;2023-06-10T08:03:30;99765.98;;;25.63
34023;BMP280;20673;48.980;8.138;2023-06-10T08:05:57;99770.79;;;25.63
34023;BMP280;20673;48.980;8.138;2023-06-10T08:08:25;99763.98;;;25.78
34023;BMP280;20673;48.980;8.138;2023-06-10T08:10:52;99762.64;;;25.99
34023;BMP280;20673;48.980;8.138;2023-06-10T08:13:18;99761.78;;;26.09
34023;BMP280;20673;48.980;8.138;2023-06-10T08:15:47;99765.50;;;26.10
34023;BMP280;20673;48.980;8.138;2023-06-10T08:18:13;99766.41;;;26.11
34023;BMP280;20673;48.980;8.138;2023-06-10T08:20:39;99765.93;;;26.21
34023;BMP280;20673;48.980;8.138;2023-06-10T08:23:05;99765.95;;;26.18
34023;BMP280;20673;48.980;8.138;2023-06-10T08:25:31;99766.22;;;26.35
34023;BMP280;20673;48.980;8.138;2023-06-10T08:27:57;99765.76;;;26.58
34023;BMP280;20673;48.980;8.138;2023-06-10T08:30:24;99759.59;;;26.63
34023;BMP280;20673;48.980;8.138;2023-06-10T08:32:50;99754.89;;;26.75
34023;BMP280;20673;48.980;8.138;2023-06-10T08:35:18;99755.76;;;26.97
34023;BMP280;20673;48.980;8.138;2023-06-10T08:37:44;99760.54;;;26.96
34023;BMP280;20673;48.980;8.138;2023-06-10T08:40:11;99762.37;;;27.08
34023;BMP280;20673;48.980;8.138;2023-06-10T08:45:16;99756.00;;;27.40
34023;BMP280;20673;48.980;8.138;2023-06-10T08:47:45;99755.89;;;27.61
34023;BMP280;20673;48.980;8.138;2023-06-10T08:50:12;99756.42;;;27.57
34023;BMP280;20673;48.980;8.138;2023-06-10T08:52:43;99759.56;;;27.80
34023;BMP280;20673;48.980;8.138;2023-06-10T08:55:21;99756.51;;;27.81
34023;BMP280;20673;48.980;8.138;2023-06-10T08:57:49;99754.36;;;27.94
34023;BMP280;20673;48.980;8.138;2023-06-10T09:00:16;99755.98;;;28.13
34023;BMP280;20673;48.980;8.138;2023-06-10T09:02:43;99752.42;;;28.30
34023;BMP280;20673;48.980;8.138;2023-06-10T09:05:10;99749.29;;;28.39
34023;BMP280;20673;48.980;8.138;2023-06-10T09:07:37;99747.12;;;28.58
34023;BMP280;20673;48.980;8.138;2023-06-10T09:10:05;99745.59;;;28.60
34023;BMP280;20673;48.980;8.138;2023-06-10T09:12:36;99737.99;;;28.99
34023;BMP280;20673;48.980;8.138;2023-06-10T09:15:05;99739.81;;;29.19
34023;BMP280;20673;48.980;8.138;2023-06-10T09:17:32;99739.18;;;28.99
34023;BMP280;20673;48.980;8.138;2023-06-10T09:20:00;99735.86;;;29.29
34023;BMP280;20673;48.980;8.138;2023-06-10T09:22:28;99736.27;;;29.22
34023;BMP280;20673;48.980;8.138;2023-06-10T09:25:07;99736.58;;;29.22
34023;BMP280;20673;48.980;8.138;2023-06-10T09:27:51;99735.78;;;29.39
34023;BMP280;20673;48.980;8.138;2023-06-10T09:30:28;99732.78;;;29.32
34023;BMP280;20673;48.980;8.138;2023-06-10T09:33:01;99729.08;;;29.49
34023;BMP280;20673;48.980;8.138;2023-06-10T09:35:26;99726.39;;;29.67
34023;BMP280;20673;48.980;8.138;2023-06-10T09:38:00;99735.99;;;29.78
34023;BMP280;20673;48.980;8.138;2023-06-10T09:40:24;99726.01;;;29.97
34023;BMP280;20673;48.980;8.138;2023-06-10T09:42:59;99737.58;;;29.70
34023;BMP280;20673;48.980;8.138;2023-06-10T09:45:32;99726.92;;;30.08
34023;BMP280;20673;48.980;8.138;2023-06-10T09:47:59;99721.15;;;30.44
34023;BMP280;20673;48.980;8.138;2023-06-10T09:50:27;99714.36;;;30.06
34023;BMP280;20673;48.980;8.138;2023-06-10T09:52:54;99717.64;;;30.33
34023;BMP280;20673;48.980;8.138;2023-06-10T09:55:23;99719.51;;;30.63
34023;BMP280;20673;48.980;8.138;2023-06-10T09:57:53;99721.00;;;30.65
34023;BMP280;20673;48.980;8.138;2023-06-10T10:00:22;99728.26;;;30.74
34023;BMP280;20673;48.980;8.138;2023-06-10T10:02:51;99726.93;;;30.68
34023;BMP280;20673;48.980;8.138;2023-06-10T10:05:21;99724.25;;;30.95
34023;BMP280;20673;48.980;8.138;2023-06-10T10:07:48;99725.78;;;31.01
34023;BMP280;20673;48.980;8.138;2023-06-10T10:10:17;99725.75;;;31.14
34023;BMP280;20673;48.980;8.138;2023-06-10T10:12:48;99729.37;;;30.86
34023;BMP280;20673;48.980;8.138;2023-06-10T10:15:17;99718.33;;;31.24
34023;BMP280;20673;48.980;8.138;2023-06-10T10:18:09;99724.61;;;31.06
34023;BMP280;20673;48.980;8.138;2023-06-10T10:20:45;99725.76;;;31.13
34023;BMP280;20673;48.980;8.138;2023-06-10T10:23:09;99730.94;;;31.36
34023;BMP280;20673;48.980;8.138;2023-06-10T10:25:42;99727.72;;;31.34
34023;BMP280;20673;48.980;8.138;2023-06-10T10:28:14;99729.64;;;31.55
34023;BMP280;20673;48.980;8.138;2023-06-10T10:30:45;99728.25;;;31.66
34023;BMP280;20673;48.980;8.138;2023-06-10T10:33:22;99728.16;;;31.84
34023;BMP280;20673;48.980;8.138;2023-06-10T10:35:50;99726.48;;;31.96
34023;BMP280;20673;48.980;8.138;2023-06-10T10:38:17;99733.82;;;32.05
34023;BMP280;20673;48.980;8.138;2023-06-10T10:40:45;99733.07;;;32.17
34023;BMP280;20673;48.980;8.138;2023-06-10T10:43:14;99732.56;;;32.10
34023;BMP280;20673;48.980;8.138;2023-06-10T10:45:40;99724.73;;;32.48
34023;BMP280;20673;48.980;8.138;2023-06-10T10:48:10;99726.76;;;32.73
34023;BMP280;20673;48.980;8.138;2023-06-10T10:50:38;99724.22;;;33.08
34023;BMP280;20673;48.980;8.138;2023-06-10T10:53:05;99723.85;;;32.76
34023;BMP280;20673;48.980;8.138;2023-06-10T10:55:32;99721.19;;;33.39
34023;BMP280;20673;48.980;8.138;2023-06-10T10:58:07;99730.71;;;33.51
34023;BMP280;20673;48.980;8.138;2023-06-10T11:00:45;99715.43;;;33.48
34023;BMP280;20673;48.980;8.138;2023-06-10T11:03:16;99720.56;;;33.19
34023;BMP280;20673;48.980;8.138;2023-06-10T11:05:48;99715.03;;;33.10
34023;BMP280;20673;48.980;8.138;2023-06-10T11:11:01;99700.16;;;31.94
34023;BMP280;20673;48.980;8.138;2023-06-10T11:13:29;99712.70;;;32.41
34023;BMP280;20673;48.980;8.138;2023-06-10T11:15:58;99704.23;;;32.78
34023;BMP280;20673;48.980;8.138;2023-06-10T11:18:29;99697.59;;;33.04
34023;BMP280;20673;48.980;8.138;2023-06-10T11:21:03;99699.49;;;33.06
34023;BMP280;20673;48.980;8.138;2023-06-10T11:23:34;99704.59;;;32.29
34023;BMP280;20673;48.980;8.138;2023-06-10T11:29:03;99695.38;;;33.04
34023;BMP280;20673;48.980;8.138;2023-06-10T11:34:07;99696.83;;;33.12
34023;BMP280;20673;48.980;8.138;2023-06-10T11:36:42;99702.28;;;33.10
34023;BMP280;20673;48.980;8.138;2023-06-10T11:39:11;99691.18;;;33.41
34023;BMP280;20673;48.980;8.138;2023-06-10T11:41:39;99689.68;;;33.32
34023;BMP280;20673;48.980;8.138;2023-06-10T11:44:12;99696.62;;;33.89
34023;BMP280;20673;48.980;8.138;2023-06-10T11:46:39;99693.21;;;33.84
34023;BMP280;20673;48.980;8.138;2023-06-10T11:49:06;99693.95;;;33.90
34023;BMP280;20673;48.980;8.138;2023-06-10T11:51:36;99679.86;;;34.30
34023;BMP280;20673;48.980;8.138;2023-06-10T11:54:03;99681.22;;;34.42
34023;BMP280;20673;48.980;8.138;2023-06-10T11:56:31;99687.87;;;33.79
34023;BMP280;20673;48.980;8.138;2023-06-10T11:59:04;99686.39;;;33.18
34023;BMP280;20673;48.980;8.138;2023-06-10T12:01:44;99687.79;;;33.64
34023;BMP280;20673;48.980;8.138;2023-06-10T12:04:16;99682.62;;;34.26
34023;BMP280;20673;48.980;8.138;2023-06-10T12:06:49;99686.57;;;34.18
34023;BMP280;20673;48.980;8.138;2023-06-10T12:09:27;99677.31;;;34.25
34023;BMP280;20673;48.980;8.138;2023-06-10T12:12:04;99676.42;;;34.50
34023;BMP280;20673;48.980;8.138;2023-06-10T12:14:59;99679.42;;;34.88
34023;BMP280;20673;48.980;8.138;2023-06-10T12:17:39;99674.26;;;34.78
34023;BMP280;20673;48.980;8.138;2023-06-10T12:20:06;99680.15;;;34.85
34023;BMP280;20673;48.980;8.138;2023-06-10T12:22:43;99678.06;;;35.04
34023;BMP280;20673;48.980;8.138;2023-06-10T12:25:11;99669.64;;;35.22
34023;BMP280;20673;48.980;8.138;2023-06-10T12:27:39;99665.34;;;35.76
34023;BMP280;20673;48.980;8.138;2023-06-10T12:30:07;99662.34;;;35.74
34023;BMP280;20673;48.980;8.138;2023-06-10T12:32:43;99665.39;;;34.85
34023;BMP280;20673;48.980;8.138;2023-06-10T12:35:12;99671.47;;;35.53
34023;BMP280;20673;48.980;8.138;2023-06-10T12:37:41;99666.15;;;35.69
34023;BMP280;20673;48.980;8.138;2023-06-10T12:40:08;99668.72;;;35.41
34023;BMP280;20673;48.980;8.138;2023-06-10T12:42:36;99658.25;;;35.20
34023;BMP280;20673;48.980;8.138;2023-06-10T12:45:04;99660.52;;;35.46
34023;BMP280;20673;48.980;8.138;2023-06-10T12:47:36;99662.41;;;35.33
34023;BMP280;20673;48.980;8.138;2023-06-10T12:50:05;99658.97;;;35.51
34023;BMP280;20673;48.980;8.138;2023-06-10T12:52:31;99651.75;;;35.11
34023;BMP280;20673;48.980;8.138;2023-06-10T12:54:58;99657.08;;;35.37
34023;BMP280;20673;48.980;8.138;2023-06-10T12:57:26;99654.81;;;35.89
34023;BMP280;20673;48.980;8.138;2023-06-10T12:59:53;99645.54;;;36.35
34023;BMP280;20673;48.980;8.138;2023-06-10T13:02:23;99644.87;;;36.19
34023;BMP280;20673;48.980;8.138;2023-06-10T13:04:50;99640.26;;;35.96
34023;BMP280;20673;48.980;8.138;2023-06-10T13:07:19;99643.10;;;35.60
34023;BMP280;20673;48.980;8.138;2023-06-10T13:09:45;99637.95;;;35.65
34023;BMP280;20673;48.980;8.138;2023-06-10T13:12:13;99641.40;;;36.15
34023;BMP280;20673;48.980;8.138;2023-06-10T13:14:40;99629.76;;;35.96
34023;BMP280;20673;48.980;8.138;2023-06-10T13:17:06;99635.93;;;35.15
34023;BMP280;20673;48.980;8.138;2023-06-10T13:19:33;99632.59;;;35.15
34023;BMP280;20673;48.980;8.138;2023-06-10T13:21:59;99609.70;;;34.96
34023;BMP280;20673;48.980;8.138;2023-06-10T13:24:28;99607.82;;;34.29
34023;BMP280;20673;48.980;8.138;2023-06-10T13:26:55;99619.12;;;34.77
34023;BMP280;20673;48.980;8.138;2023-06-10T13:29:22;99621.61;;;35.10
34023;BMP280;20673;48.980;8.138;2023-06-10T13:31:48;99618.25;;;35.19
34023;BMP280;20673;48.980;8.138;2023-06-10T13:34:14;99609.07;;;35.77
34023;BMP280;20673;48.980;8.138;2023-06-10T13:36:41;99604.00;;;36.20
34023;BMP280;20673;48.980;8.138;2023-06-10T13:39:08;99598.22;;;36.25
34023;BMP280;20673;48.980;8.138;2023-06-10T13:41:35;99595.74;;;36.22
34023;BMP280;20673;48.980;8.138;2023-06-10T13:44:01;99593.39;;;35.90
34023;BMP280;20673;48.980;8.138;2023-06-10T13:46:27;99584.93;;;35.51
34023;BMP280;20673;48.980;8.138;2023-06-10T13:48:53;99596.70;;;35.31
34023;BMP280;20673;48.980;8.138;2023-06-10T13:51:20;99595.05;;;35.31
34023;BMP280;20673;48.980;8.138;2023-06-10T13:53:46;99593.54;;;35.57
34023;BMP280;20673;48.980;8.138;2023-06-10T13:56:12;99589.69;;;35.58
34023;BMP280;20673;48.980;8.138;2023-06-10T13:58:38;99574.62;;;35.88
34023;BMP280;20673;48.980;8.138;2023-06-10T14:01:06;99579.88;;;36.19
34023;BMP280;20673;48.980;8.138;2023-06-10T14:03:33;99579.17;;;36.32
34023;BMP280;20673;48.980;8.138;2023-06-10T14:06:00;99574.11;;;36.32
34023;BMP280;20673;48.980;8.138;2023-06-10T14:08:26;99568.26;;;36.32
34023;BMP280;20673;48.980;8.138;2023-06-10T14:10:52;99562.34;;;36.82
34023;BMP280;20673;48.980;8.138;2023-06-10T14:13:19;99565.86;;;36.93
34023;BMP280;20673;48.980;8.138;2023-06-10T14:15:45;99564.64;;;37.07
34023;BMP280;20673;48.980;8.138;2023-06-10T14:18:11;99568.51;;;36.35
34023;BMP280;20673;48.980;8.138;2023-06-10T14:20:38;99573.53;;;36.35
34023;BMP280;20673;48.980;8.138;2023-06-10T14:23:04;99570.32;;;36.42
34023;BMP280;20673;48.980;8.138;2023-06-10T14:25:30;99562.83;;;36.65
34023;BMP280;20673;48.980;8.138;2023-06-10T14:27:59;99556.98;;;36.54
34023;BMP280;20673;48.980;8.138;2023-06-10T14:30:25;99564.86;;;36.76